AirNav   Duncan Aviation - Near you to keep you flying
 
 941 users online  

CL35 Warner Springs Gliderport
Warner Springs, California, USA

GOING TO WARNER SPRINGS?


FAA INFORMATION EFFECTIVE 01 DECEMBER 2022

Location

FAA Identifier: CL35
Lat/Long: 33-17-04.2100N 116-40-10.7650W
33-17.070167N 116-40.179417W
33.2845028,-116.6696569
(estimated)
Elevation: 2880 ft. / 878 m (estimated)
Variation: 13E (1985)
From city: 2 miles E of WARNER SPRINGS, CA
Time zone: UTC -8 (UTC -7 during Daylight Saving Time)
Zip code: 92086

Gliderport Operations

Gliderport use: Private use. Permission required prior to landing
Activation date: 10/1984
Control tower: no
ARTCC: LOS ANGELES CENTER
FSS: SAN DIEGO FLIGHT SERVICE STATION
Attendance: 0900-1700
Wind indicator: yes
Segmented circle: yes
Landing fee: yes

Gliderport Communications

UNICOM: 122.8
WX AWOS-3P at L08 (18 nm E): 126.575 (760-767-3308)
WX ASOS at RNM (19 nm SW): PHONE 760-789-7699

Nearby radio navigation aids

VOR radial/distance  VOR name  Freq  Var
JLIr319/9.6JULIAN VORTAC114.0015E
TRMr218/32.8THERMAL VORTAC116.2013E
PSPr186/37.1PALM SPRINGS VORTAC115.5013E
OCNr071/37.6OCEANSIDE VORTAC115.3015E
HDFr125/(39.2)HOMELAND VOR112.0514E

Gliderport Services

Runway Information

Runway 8/26

Dimensions: 3500 x 70 ft. / 1067 x 21 m
Surface: asphalt
RUNWAY 8  RUNWAY 26
Latitude: 33-17.060333N33-17.080000N
Longitude: 116-40.522667W116-39.836167W
Elevation: 2873.0 ft.2914.0 ft.
Traffic pattern: leftleft
Obstructions: none200 ft. hill, 5200 ft. from runway

Gliderport Ownership and Management from official FAA records

Ownership: Privately-owned
Owner: WARNER SPRINGS RANCH RESORT, LLC
31930 HWY 79
WARNER SPRINGS, CA 92086
Phone 760-782-4200
SKY SAILING 31930 HWY 79.
Manager: BRET WILLAT
SKY SAILING INC., 31930 HWY 79
WARNER SPRINGS, CA 92086
Phone 760-782-0404
LEASEE.

Gliderport Operational Statistics

Aircraft based on the field: 80
Single engine airplanes: 10
Gliders airplanes: 70
    

Additional Remarks

FOR CD CTC LOS ANGELES ARTCC AT 661-575-2079.

Instrument Procedures

There are no published instrument procedures at CL35.

Some nearby airports with instrument procedures:

L08 - Borrego Valley Airport (18 nm E)
KRNM - Ramona Airport (19 nm SW)
F70 - French Valley Airport (29 nm NW)
L18 - Fallbrook Community Airpark (29 nm W)
KSEE - Gillespie Field Airport (31 nm SW)
 
Loc | Ops | Rwys | IFR | FBO | Links
Com | Nav | Svcs | Stats | Notes
Area around CL35 (Warner Springs Gliderport)
 
Road maps at: MapQuest Bing Google
 
Aerial photo
WARNING: Photo may not be current or correct
Aerial photo of CL35 (Warner Springs Gliderport)
Photo by Steve Lupinacci
Photo taken 27-May-2008

Do you have a better or more recent aerial photo of Warner Springs Gliderport that you would like to share? If so, please send us your photo.

 
Sectional chart

 
Airport distance calculator
Flying to Warner Springs Gliderport? Find the distance to fly.

From to CL35

Sunrise and sunset
Times for 02-Dec-2022
 Local
(UTC-8)
 Zulu
(UTC)
Morning civil twilight06:0714:07
Sunrise06:3414:34
Sunset16:3800:38
Evening civil twilight17:0501:05

Current date and time
Zulu (UTC)  03-Dec-2022 03:11:03
Local (UTC-8)  02-Dec-2022 19:11:03
 
METAR
KL08 
18nm E 
030255Z AUTO 02004KT 10SM CLR 13/05 A3010 RMK AO2
KRNM 
20nm SW 
030253Z 26004KT 10SM CLR 11/07 A3007 RMK AO2 SLP180 T01060072 53003
KF70 
29nm NW 
030255Z AUTO 36007KT 10SM CLR 13/07 A3009 RMK AO2
KL18 
29nm W 
030255Z AUTO 00000KT 10SM CLR 13/08 A3008 RMK AO2
KSEE 
32nm SW 
030247Z 29005KT 10SM SKC 14/09 A3007
KCRQ 
32nm W 
030253Z 00000KT 10SM CLR 14/11 A3007 RMK AO2 SLP181 T01390106 53004
KHMT 
32nm NW 
030255Z AUTO 15003KT 10SM CLR 12/08 A3010 RMK AO2 T01220080
KTRM 
33nm NE 
030252Z AUTO 00000KT 10SM CLR 11/07 A3009 RMK AO2 SLP189 T01110072 53006
KPSP 
33nm N 
030253Z 31004KT 10SM CLR 16/06 A3012 RMK AO2 SLP201 T01610061 53009
KNFG 
33nm W 
030252Z 09003KT 10SM CLR 14/09 A3007 RMK AO2 SLP182 T01440094 53004 $
TAF
KCRQ 
32nm W 
021734Z 0218/0318 10004KT P6SM BKN035 FM021900 26008KT P6SM SCT035 BKN100 FM030100 VRB04KT P6SM BKN100 FM031200 VRB04KT P6SM SCT010 SCT100
KTRM 
33nm NE 
021734Z 0218/0318 VRB06KT P6SM BKN100
KPSP 
33nm N 
021734Z 0218/0318 VRB06KT P6SM BKN100 FM022000 34005KT P6SM BKN100
KNFG 
33nm W 
0221/0321 21010KT 9999 BKN035 OVC100 QNH3007INS BECMG 0302/0304 VRB05KT 9999 SCT035 BKN100 QNH3005INS BECMG 0318/0320 21010KT 9999 SKC QNH3008INS T08/0314Z T21/0321Z
KNKX 
34nm SW 
0221/0321 31008KT 9999 FEW050 SCT100 BKN250 QNH3005INS FM030330 VRB05KT 9999 SCT030 SCT250 620909 621804 QNH3008INS FM030930 VRB05KT 9999 SCT010 SCT250 620909 621804 QNH3006INS FM031830 30008KT 9999 FEW060 SCT250 620909 621804 QNH3005INS T08/0314Z T20/0321Z
NOTAMs
Click for the latest NOTAMs
NOTAMs are issued by the DoD/FAA and will open in a separate window not controlled by AirNav.

 

 
 

Would you like to see your business listed on this page?

 If your business provides an interesting product or service to pilots, flight crews, aircraft, or users of the Warner Springs Gliderport, you should consider listing it here.  To start the listing process, click on the button below
 
Add a business
 

Other Pages about Warner Springs Gliderport

www.agcsc.org/warner_springs_info.html
 
Update a link
 
Copyright © AirNav, LLC. All rights reserved. Privacy Policy  Contact